Observations for GLASGOW AIRPORT, United Kingdom (EGPF)

EGPF 230950Z AUTO 25018G28KT 9999 SCT024 BKN031 12/11 Q1026 
EGPF 230920Z AUTO 25019KT 9000 -RA BKN027 12/10 Q1026   
EGPF 230850Z AUTO 25018KT 6000 -RA FEW016 SCT022 BKN026 11/10 Q1026 
EGPF 230820Z AUTO 25017KT 9999 -RA FEW027 SCT033 BKN040 11/10 Q1026 RERA
EGPF 230750Z AUTO 25019KT 4900 RA FEW015 SCT036 OVC047 11/10 Q1026  
EGPF 230720Z AUTO 25018KT 6000 -RA FEW013 BKN032 BKN042 11/09 Q1026 
EGPF 230650Z 25019KT 5000 -RADZ FEW007 SCT012 BKN019 11/09 Q1026 REDZ   
EGPF 230620Z 26020G30KT 4000 DZ SCT009 BKN015 11/09 Q1026   
EGPF 230550Z AUTO 26024G35KT 9999 BKN023 OVC031 12/08 Q1025 
EGPF 230520Z AUTO 26021G35KT 9999 BKN023 OVC027 12/08 Q1026 
EGPF 230450Z AUTO 24020G30KT 9999 FEW022 OVC026 11/07 Q1026 
EGPF 230420Z AUTO 24019KT 9999 BKN022 OVC029 11/08 Q1027
EGPF 230350Z AUTO 25020G30KT 9999 BKN024 OVC036 11/08 Q1027 
EGPF 230320Z AUTO 25020KT 9999 BKN020 OVC035 11/08 Q1027
EGPF 230250Z AUTO 24019KT 9999 BKN020 OVC030 11/08 Q1027
EGPF 230220Z AUTO 24019KT 9999 BKN018 OVC024 11/08 Q1027
EGPF 230150Z AUTO 25018KT 9000 OVC018 11/08 Q1028   
EGPF 230120Z AUTO 25016G27KT 9999 OVC018 11/08 Q1028
EGPF 230050Z AUTO 25017KT 9999 OVC023 12/08 Q1028   
EGPF 230020Z AUTO 25016KT 9999 OVC021 12/07 Q1028   
EGPF 222350Z AUTO 24016G27KT 9999 BKN020 OVC028 11/08 Q1029 
EGPF 222320Z AUTO 25013KT 9999 BKN023 OVC032 11/08 Q1029
EGPF 222250Z AUTO 24017KT 9999 BKN023 BKN031 OVC046 11/08 Q1029 
EGPF 222220Z AUTO 24016KT 9999 BKN023 OVC032 11/08 Q1030
EGPF 222150Z AUTO 24019KT 9999 BKN025 BKN032 OVC040 11/08 Q1030 
EGPF 222120Z AUTO 24015KT 9999 BKN023 OVC039 11/08 Q1031
EGPF 222050Z AUTO 24017KT 9999 BKN024 BKN032 OVC049 11/08 Q1031 
EGPF 222020Z AUTO 24021KT 9999 SCT032 BKN038 OVC046 11/08 Q1031 
EGPF 221950Z AUTO 25018G30KT 9999 OVC031 11/08 Q1031
EGPF 221920Z AUTO 25019G30KT 9999 BKN033 OVC047 11/07 Q1031 
EGPF 221850Z AUTO 25019KT 9999 BKN033 11/07 Q1032   
EGPF 221820Z AUTO 25019G30KT 9999 BKN034 11/07 Q1031
EGPF 221750Z AUTO 25016KT 9999 BKN032 OVC046 11/07 Q1032
EGPF 221720Z AUTO 25014KT 9999 SCT031 BKN038 11/07 Q1032
EGPF 221650Z AUTO 25014KT 9999 BKN030 11/07 Q1032   
EGPF 221620Z AUTO 25015KT 9999 SCT027 BKN034 11/08 Q1033
EGPF 221550Z AUTO 24016KT 9999 FEW021 SCT028 BKN039 11/08 Q1033 
EGPF 221520Z AUTO 25015KT 9999 BKN022 OVC042 11/08 Q1033
EGPF 221450Z AUTO 25015KT 9999 -RA BKN020 BKN028 OVC035 11/08 Q1033 
EGPF 221420Z AUTO 24018KT 9999 FEW021 SCT026 BKN032 11/08 Q1034 
EGPF 221350Z AUTO 25015KT 9999 -RA FEW014 SCT018 BKN027 10/09 Q1034 
EGPF 221320Z AUTO 25014KT 9999 FEW020 BKN032 OVC045 11/08 Q1034 
EGPF 221250Z AUTO 24018G28KT 9999 FEW022 SCT028 OVC034 11/07 Q1035  
EGPF 221220Z AUTO 23015KT 9999 SCT032 BKN039 OVC045 11/08 Q1035 
EGPF 221150Z AUTO 23015KT 9999 OVC033 11/07 Q1035   
EGPF 221120Z AUTO 24016KT 9999 FEW017 SCT027 BKN036 11/07 Q1035 
EGPF 221050Z AUTO 24015KT 9999 OVC032 11/07 Q1035   
EGPF 221020Z AUTO 23013KT 9999 SCT029 OVC044 11/07 Q1036
EGPF 220950Z AUTO 24012KT 9999 OVC041 11/07 Q1036   
EGPF 220920Z AUTO 21010KT 9999 NCD 10/07 Q1035